Time;durP1;ratioP1;P1;durP2;ratioP2;P2;SDS_P1;SDS_P2;PMS_P1;PMS_P2;Temp;Humidity;BMP_temperature;BMP_pressure;BME280_temperature;BME280_humidity;BME280_pressure;Samples;Min_cycle;Max_cycle;Signal;HPM_P1;HPM_P2
2023/03/30 00:03:59;;;;;;;1.90;1.20;;;;;;;0.00;100.00;59042.03;10384365;28;20036;-77
2023/03/30 00:08:59;;;;;;;3.47;1.58;;;;;;;0.00;100.00;59042.03;10383835;28;20300;-76
2023/03/30 00:14:00;;;;;;;1.60;1.35;;;;;;;0.00;100.00;59042.03;10383292;28;20033;-77
2023/03/30 00:19:00;;;;;;;1.42;1.23;;;;;;;0.00;100.00;59042.03;10383824;28;20049;-77
2023/03/30 00:24:01;;;;;;;3.20;1.70;;;;;;;0.00;100.00;59042.03;10383495;28;20022;-77
2023/03/30 00:29:02;;;;;;;5.40;1.65;;;;;;;0.00;100.00;59042.03;10382957;28;20713;-77
2023/03/30 00:34:02;;;;;;;3.40;1.35;;;;;;;0.00;100.00;59042.03;10382085;28;20029;-77
2023/03/30 00:39:07;;;;;;;2.85;1.65;;;;;;;0.00;100.00;59042.03;10382253;28;20021;-77
2023/03/30 00:44:46;;;;;;;4.78;2.28;;;;;;;0.00;100.00;59042.03;10382235;28;20014;-77
2023/03/30 00:49:47;;;;;;;3.70;1.42;;;;;;;0.00;100.00;59042.03;10382102;28;20050;-77
2023/03/30 00:54:47;;;;;;;4.60;1.55;;;;;;;0.00;100.00;59042.03;10382955;28;20040;-77
2023/03/30 00:59:51;;;;;;;5.82;1.70;;;;;;;0.00;100.00;59042.03;10382910;28;20040;-78
2023/03/30 01:04:56;;;;;;;3.30;1.77;;;;;;;0.00;100.00;59042.03;10382970;28;20418;-77
2023/03/30 01:09:58;;;;;;;7.13;2.30;;;;;;;0.00;100.00;59042.03;10382131;28;20127;-78
2023/03/30 01:14:58;;;;;;;3.00;1.88;;;;;;;0.00;100.00;59042.03;10382262;28;20202;-78
2023/03/30 01:20:17;;;;;;;5.10;2.05;;;;;;;0.00;100.00;59042.03;10381583;28;20064;-77
2023/03/30 01:25:55;;;;;;;2.15;1.40;;;;;;;0.00;100.00;59042.03;10381550;28;20721;-77
2023/03/30 01:31:20;;;;;;;4.10;2.05;;;;;;;0.00;100.00;59042.03;10380693;28;20030;-78
2023/03/30 01:36:48;;;;;;;3.03;1.90;;;;;;;0.00;100.00;59042.03;10381881;28;20346;-78
2023/03/30 01:42:02;;;;;;;4.63;1.67;;;;;;;0.00;100.00;59042.03;10380957;28;20024;-77
2023/03/30 01:47:11;;;;;;;3.90;1.67;;;;;;;0.00;100.00;59042.03;10384463;28;20087;-77
2023/03/30 01:52:23;;;;;;;2.47;1.70;;;;;;;0.00;100.00;59042.03;10390427;28;20064;-78
2023/03/30 01:57:36;;;;;;;4.38;1.80;;;;;;;0.00;100.00;59042.03;10390440;28;20060;-78
2023/03/30 02:02:37;;;;;;;2.67;1.67;;;;;;;0.00;100.00;59042.03;10389709;28;20029;-77
2023/03/30 02:07:40;;;;;;;2.45;1.83;;;;;;;0.00;100.00;59042.03;10388992;28;20036;-77
2023/03/30 02:12:41;;;;;;;5.68;2.60;;;;;;;0.00;100.00;59042.03;10388283;28;20042;-78
2023/03/30 02:17:44;;;;;;;8.10;1.80;;;;;;;0.00;100.00;59042.03;10388808;28;20021;-77
2023/03/30 02:22:45;;;;;;;2.75;2.03;;;;;;;0.00;100.00;59042.03;10378706;28;20025;-78
2023/03/30 02:27:46;;;;;;;4.32;2.00;;;;;;;0.00;100.00;59042.03;10356317;28;20496;-77
2023/03/30 02:32:51;;;;;;;3.20;2.05;;;;;;;0.00;100.00;59042.03;10389870;28;20033;-77
2023/03/30 02:38:00;;;;;;;6.25;1.88;;;;;;;0.00;100.00;59042.03;10389600;28;20036;-78
2023/03/30 02:43:24;;;;;;;6.03;2.65;;;;;;;0.00;100.00;59042.03;10389484;28;20082;-78
2023/03/30 02:48:58;;;;;;;2.58;1.70;;;;;;;0.00;100.00;59042.03;10387659;28;20084;-76
2023/03/30 02:54:08;;;;;;;5.57;2.10;;;;;;;0.00;100.00;59042.03;10387808;28;20046;-77
2023/03/30 02:59:15;;;;;;;4.65;2.72;;;;;;;0.00;100.00;59042.03;10385294;28;20021;-77
2023/03/30 03:04:18;;;;;;;5.20;2.57;;;;;;;0.00;100.00;59042.03;10386901;28;20044;-77
2023/03/30 03:09:19;;;;;;;4.50;2.47;;;;;;;0.00;100.00;59042.03;10384890;28;20021;-77
2023/03/30 03:14:20;;;;;;;4.47;2.30;;;;;;;0.00;100.00;59042.03;10385605;28;20029;-77
2023/03/30 03:19:20;;;;;;;4.32;2.58;;;;;;;0.00;100.00;59042.03;10386503;28;20472;-77
2023/03/30 03:24:21;;;;;;;10.13;2.92;;;;;;;0.00;100.00;59042.03;10378211;28;20080;-76
2023/03/30 03:29:21;;;;;;;5.03;2.85;;;;;;;0.00;100.00;59042.03;10361145;28;20022;-76
2023/03/30 03:34:24;;;;;;;3.78;2.63;;;;;;;0.00;100.00;59042.03;10384678;28;20044;-76
2023/03/30 03:39:25;;;;;;;5.00;2.63;;;;;;;0.00;100.00;59042.03;10384922;28;20022;-77
2023/03/30 03:44:26;;;;;;;4.35;2.55;;;;;;;0.00;100.00;59042.03;10385536;28;20029;-76
2023/03/30 03:49:26;;;;;;;5.60;3.75;;;;;;;0.00;100.00;59042.03;10380374;28;20046;-75
2023/03/30 03:54:27;;;;;;;6.03;3.03;;;;;;;0.00;100.00;59042.03;10364125;28;20032;-76
2023/03/30 03:59:27;;;;;;;6.53;3.70;;;;;;;0.00;100.00;59042.03;10384404;28;20037;-76
2023/03/30 04:04:28;;;;;;;4.80;3.40;;;;;;;0.00;100.00;59042.03;10382493;28;20029;-76
2023/03/30 04:09:28;;;;;;;6.05;3.45;;;;;;;0.00;100.00;59042.03;10381988;28;20594;-75
2023/03/30 04:14:29;;;;;;;5.70;3.63;;;;;;;0.00;100.00;59042.03;10382539;28;20048;-75
2023/03/30 04:19:30;;;;;;;7.38;4.85;;;;;;;0.00;100.00;59042.03;10381707;28;20116;-75
2023/03/30 04:24:30;;;;;;;7.75;4.13;;;;;;;0.00;100.00;59042.03;10370985;28;20087;-76
2023/03/30 04:29:31;;;;;;;8.50;4.72;;;;;;;0.00;100.00;59042.03;10379126;28;20068;-76
2023/03/30 04:34:31;;;;;;;7.35;4.75;;;;;;;0.00;100.00;59042.03;10380839;28;20139;-75
2023/03/30 04:39:32;;;;;;;9.63;5.82;;;;;;;0.00;100.00;59042.03;10377143;28;20033;-77
2023/03/30 04:44:32;;;;;;;9.95;4.55;;;;;;;0.00;100.00;59042.03;10377092;28;20029;-76
2023/03/30 04:49:33;;;;;;;9.13;5.30;;;;;;;0.00;100.00;59042.03;10410374;28;20059;-77
2023/03/30 04:54:33;;;;;;;9.38;4.63;;;;;;;0.00;100.00;59042.03;10359688;28;20276;-75
2023/03/30 04:59:34;;;;;;;12.27;4.40;;;;;;;0.00;100.00;59042.03;10378116;28;20127;-76
2023/03/30 05:04:35;;;;;;;9.48;4.55;;;;;;;0.00;100.00;59042.03;10380570;28;20272;-76
2023/03/30 05:09:35;;;;;;;11.27;5.13;;;;;;;0.00;100.00;59042.03;10380708;28;20029;-77
2023/03/30 05:14:36;;;;;;;11.05;4.93;;;;;;;0.00;100.00;59042.03;10379339;28;20033;-75
2023/03/30 05:19:36;;;;;;;7.78;3.55;;;;;;;0.00;100.00;59042.03;10369584;28;20039;-76
2023/03/30 05:24:36;;;;;;;15.90;6.55;;;;;;;0.00;100.00;59042.03;10377567;28;20025;-75
2023/03/30 05:29:37;;;;;;;12.52;4.63;;;;;;;0.00;100.00;59042.03;10360542;28;20030;-76
2023/03/30 05:34:37;;;;;;;14.90;4.53;;;;;;;0.00;100.00;59042.03;10375125;28;20044;-76
2023/03/30 05:39:38;;;;;;;9.15;5.05;;;;;;;0.00;100.00;59042.03;10378815;28;20022;-75
2023/03/30 05:44:38;;;;;;;9.23;4.72;;;;;;;0.00;100.00;59042.03;10379791;28;20172;-75
2023/03/30 05:49:39;;;;;;;8.70;4.75;;;;;;;0.00;100.00;59042.03;10378889;28;20041;-76
2023/03/30 05:54:39;;;;;;;11.20;4.70;;;;;;;0.00;100.00;59042.03;10378845;28;20037;-76
2023/03/30 05:59:40;;;;;;;16.58;5.07;;;;;;;0.00;100.00;59042.03;10363225;28;20107;-76
2023/03/30 06:04:40;;;;;;;9.77;5.35;;;;;;;0.00;100.00;59042.03;10370514;28;20116;-75
2023/03/30 06:09:41;;;;;;;7.90;4.50;;;;;;;0.00;100.00;59042.03;10355545;28;20029;-76
2023/03/30 06:14:41;;;;;;;14.80;6.00;;;;;;;0.00;100.00;59042.03;10343716;28;20029;-76
2023/03/30 06:19:42;;;;;;;21.40;6.70;;;;;;;0.00;100.00;59042.03;10370605;28;20276;-75
2023/03/30 06:24:42;;;;;;;14.65;6.32;;;;;;;0.00;100.00;59042.03;10348355;28;20384;-76
2023/03/30 06:29:44;;;;;;;20.60;7.33;;;;;;;0.00;100.00;59042.03;10379007;28;20025;-76
2023/03/30 06:34:44;;;;;;;13.48;5.72;;;;;;;0.00;100.00;59042.03;10384572;28;20357;-75
2023/03/30 06:39:46;;;;;;;10.35;5.55;;;;;;;0.00;100.00;59042.03;10386950;28;20059;-76
2023/03/30 06:44:48;;;;;;;15.48;7.13;;;;;;;0.00;100.00;59042.03;10386724;28;20385;-76
2023/03/30 06:49:49;;;;;;;15.75;7.00;;;;;;;0.00;100.00;59042.03;10347131;28;20145;-76
2023/03/30 06:54:49;;;;;;;13.23;6.60;;;;;;;0.00;100.00;59042.03;10370127;28;20112;-76
2023/03/30 06:59:50;;;;;;;16.33;5.82;;;;;;;0.00;100.00;59042.03;10386105;28;20017;-75
2023/03/30 07:04:50;;;;;;;12.23;6.20;;;;;;;0.00;100.00;59042.03;10385983;28;20116;-75
2023/03/30 07:09:51;;;;;;;16.25;6.75;;;;;;;0.00;100.00;59042.03;10385707;28;20053;-76
2023/03/30 07:14:51;;;;;;;14.77;6.55;;;;;;;0.00;100.00;59042.03;10385919;28;20029;-76
2023/03/30 07:19:52;;;;;;;14.00;6.75;;;;;;;0.00;100.00;59042.03;10385825;28;20026;-76
2023/03/30 07:24:53;;;;;;;16.67;6.53;;;;;;;0.00;100.00;59042.03;10349134;28;20037;-76
2023/03/30 07:29:54;;;;;;;10.38;5.72;;;;;;;0.00;100.00;59042.03;10370392;28;20460;-75
2023/03/30 07:34:54;;;;;;;14.98;6.32;;;;;;;0.00;100.00;59042.03;10384926;28;20033;-75
2023/03/30 07:39:56;;;;;;;17.63;7.30;;;;;;;0.00;100.00;59042.03;10384216;28;20036;-76
2023/03/30 07:44:56;;;;;;;12.48;6.50;;;;;;;0.00;100.00;59042.03;10383178;28;20351;-76
2023/03/30 07:49:56;;;;;;;14.60;6.13;;;;;;;0.00;100.00;59042.03;10384608;28;20049;-75
2023/03/30 07:54:57;;;;;;;12.10;5.43;;;;;;;0.00;100.00;59042.03;10383978;28;20116;-76
2023/03/30 07:59:57;;;;;;;11.30;6.00;;;;;;;0.00;100.00;59042.03;10383452;28;20052;-75
2023/03/30 08:04:58;;;;;;;13.68;5.40;;;;;;;0.00;100.00;59042.03;10383687;28;20396;-75
2023/03/30 08:09:59;;;;;;;15.10;6.47;;;;;;;0.00;100.00;59042.03;10383253;28;20029;-75
2023/03/30 08:15:00;;;;;;;12.82;6.47;;;;;;;0.00;100.00;59042.03;10383186;28;20104;-75
2023/03/30 08:20:01;;;;;;;17.77;6.07;;;;;;;0.00;100.00;59042.03;10381961;28;20029;-74
2023/03/30 08:25:01;;;;;;;14.63;7.35;;;;;;;0.00;100.00;59042.03;10382055;28;20412;-75
2023/03/30 08:30:02;;;;;;;13.75;6.75;;;;;;;0.00;100.00;59042.03;10382204;28;20635;-74
2023/03/30 08:35:04;;;;;;;14.82;5.32;;;;;;;0.00;100.00;59042.03;10382955;28;20028;-75
2023/03/30 08:40:07;;;;;;;13.20;6.20;;;;;;;0.00;100.00;59042.03;10380131;28;20084;-77
2023/03/30 08:45:09;;;;;;;13.30;6.18;;;;;;;0.00;100.00;59042.03;10381601;28;20033;-76
2023/03/30 08:50:32;;;;;;;13.75;6.47;;;;;;;0.00;100.00;59042.03;10382515;28;20136;-76
2023/03/30 08:55:46;;;;;;;10.45;5.50;;;;;;;0.00;100.00;59042.03;10386469;28;20053;-75
2023/03/30 09:00:59;;;;;;;11.95;6.22;;;;;;;0.00;100.00;59042.03;10379814;28;20061;-76
2023/03/30 09:06:08;;;;;;;12.80;6.68;;;;;;;0.00;100.00;59042.03;10380187;28;20045;-72
2023/03/30 09:11:16;;;;;;;12.70;6.75;;;;;;;0.00;100.00;59042.03;10380905;28;20840;-74
2023/03/30 09:16:27;;;;;;;5.57;3.60;;;;;;;0.00;100.00;59042.03;10380357;28;20083;-74
2023/03/30 09:21:30;;;;;;;10.65;3.17;;;;;;;0.00;100.00;59042.03;10378794;28;20036;-76
2023/03/30 09:26:52;;;;;;;14.30;3.55;;;;;;;0.00;100.00;59042.03;10379571;28;20029;-78
2023/03/30 09:32:30;;;;;;;6.80;3.25;;;;;;;0.00;100.00;59042.03;10395913;28;20092;-77
2023/03/30 09:37:31;;;;;;;11.67;4.00;;;;;;;0.00;100.00;59042.03;10381592;28;20162;-77
2023/03/30 09:42:46;;;;;;;8.25;4.03;;;;;;;0.00;100.00;59042.03;10379885;28;20021;-77
2023/03/30 09:47:47;;;;;;;5.00;3.15;;;;;;;0.00;100.00;59042.03;10381013;28;20493;-76
2023/03/30 09:53:03;;;;;;;17.20;3.65;;;;;;;0.00;100.00;59042.03;10381182;28;20394;-76
2023/03/30 09:58:25;;;;;;;9.63;3.25;;;;;;;0.00;100.00;59042.03;10381108;28;20037;-76
2023/03/30 10:03:26;;;;;;;5.68;2.33;;;;;;;0.00;100.00;59042.03;10380888;28;20025;-76
2023/03/30 10:08:29;;;;;;;5.30;1.90;;;;;;;0.00;100.00;59042.03;10384691;28;20396;-76
2023/03/30 10:13:34;;;;;;;8.95;4.90;;;;;;;0.00;100.00;59042.03;10388885;28;20049;-76
2023/03/30 10:18:44;;;;;;;4.50;2.83;;;;;;;0.00;100.00;59042.03;10375990;28;20022;-76
2023/03/30 10:23:46;;;;;;;9.15;2.00;;;;;;;0.00;100.00;59042.03;10387831;28;20087;-76
2023/03/30 10:29:03;;;;;;;4.00;2.00;;;;;;;0.00;100.00;59042.03;10387597;28;20089;-76
2023/03/30 10:34:18;;;;;;;3.40;1.83;;;;;;;0.00;100.00;59042.03;10387349;28;20437;-77
2023/03/30 10:39:29;;;;;;;2.45;1.80;;;;;;;0.00;100.00;59042.03;10385675;28;20025;-76
2023/03/30 10:44:31;;;;;;;5.20;1.17;;;;;;;0.00;100.00;59042.03;10386739;28;20060;-77
2023/03/30 10:49:38;;;;;;;7.88;1.67;;;;;;;0.00;100.00;59042.03;10385824;28;20876;-76
2023/03/30 10:54:48;;;;;;;2.90;1.20;;;;;;;0.00;100.00;59042.03;10385771;28;20036;-77
2023/03/30 11:00:19;;;;;;;3.08;1.60;;;;;;;0.00;100.00;59042.03;10384625;28;20377;-76
2023/03/30 11:05:29;;;;;;;3.00;1.60;;;;;;;0.00;100.00;59042.03;10385946;28;20568;-76
2023/03/30 11:10:34;;;;;;;5.75;2.30;;;;;;;0.00;100.00;59042.03;10384607;28;20160;-76
2023/03/30 11:15:56;;;;;;;7.95;1.90;;;;;;;0.00;100.00;59042.03;10385748;28;20097;-77
2023/03/30 11:21:19;;;;;;;4.38;1.90;;;;;;;0.00;100.00;59042.03;10383739;28;20044;-76
2023/03/30 11:26:34;;;;;;;5.93;1.27;;;;;;;0.00;100.00;59042.03;10385080;28;20029;-76
2023/03/30 11:31:50;;;;;;;4.75;2.05;;;;;;;0.00;100.00;59042.03;10384661;28;20025;-77
2023/03/30 11:37:26;;;;;;;11.48;2.00;;;;;;;0.00;100.00;59042.03;10368974;28;20084;-76
2023/03/30 11:42:30;;;;;;;2.70;1.90;;;;;;;0.00;100.00;59042.03;10344199;28;20447;-76
2023/03/30 11:47:33;;;;;;;2.30;1.70;;;;;;;0.00;100.00;59042.03;10367525;28;20479;-75
2023/03/30 11:52:50;;;;;;;3.22;1.60;;;;;;;0.00;100.00;59042.03;10384592;28;20030;-76
2023/03/30 11:58:13;;;;;;;2.58;1.92;;;;;;;0.00;100.00;59042.03;10384260;28;20410;-76
2023/03/30 12:03:18;;;;;;;5.40;2.50;;;;;;;0.00;100.00;59042.03;10382222;28;20488;-76
2023/03/30 12:08:27;;;;;;;4.95;1.83;;;;;;;0.00;100.00;59042.03;10376247;28;20524;-77
2023/03/30 12:13:28;;;;;;;5.15;2.25;;;;;;;0.00;100.00;59042.03;10367045;28;20029;-77
2023/03/30 12:18:50;;;;;;;6.53;1.90;;;;;;;0.00;100.00;59042.03;10356456;28;20033;-77
2023/03/30 12:24:28;;;;;;;4.40;1.63;;;;;;;0.00;100.00;59042.03;10359544;28;20025;-76
2023/03/30 12:29:50;;;;;;;6.47;2.00;;;;;;;0.00;100.00;59042.03;10371489;28;20061;-78
2023/03/30 12:34:51;;;;;;;4.15;1.60;;;;;;;0.00;100.00;59042.03;10367951;28;20034;-77
2023/03/30 12:40:04;;;;;;;7.65;2.45;;;;;;;0.00;100.00;59042.03;10358766;28;20032;-77
2023/03/30 12:45:14;;;;;;;4.75;1.90;;;;;;;0.00;100.00;59042.03;10366016;28;20025;-76
2023/03/30 12:50:51;;;;;;;4.15;1.63;;;;;;;0.00;100.00;59042.03;10362622;28;20053;-73
2023/03/30 12:56:00;;;;;;;4.68;1.73;;;;;;;0.00;100.00;59042.03;10359622;28;20043;-76
2023/03/30 13:01:58;;;;;;;4.95;2.13;;;;;;;0.00;100.00;59042.03;10368959;28;20043;-77
2023/03/30 13:07:05;;;;;;;2.75;1.50;;;;;;;0.00;100.00;59042.03;10348509;28;20029;-78
2023/03/30 13:12:29;;;;;;;7.63;1.83;;;;;;;0.00;100.00;59042.03;10345574;28;20053;-76
2023/03/30 13:17:55;;;;;;;1.98;1.58;;;;;;;0.00;100.00;59042.03;10368929;28;20511;-79
2023/03/30 13:23:22;;;;;;;2.92;1.90;;;;;;;0.00;100.00;59042.03;10375637;28;20810;-77
2023/03/30 13:28:45;;;;;;;3.55;2.30;;;;;;;0.00;100.00;59042.03;10380090;28;20079;-76
2023/03/30 13:33:55;;;;;;;2.53;1.17;;;;;;;0.00;100.00;59042.03;10380333;28;20520;-77
2023/03/30 13:39:02;;;;;;;2.88;1.58;;;;;;;0.00;100.00;59042.03;10381127;28;20808;-76
2023/03/30 13:44:32;;;;;;;8.02;2.00;;;;;;;0.00;100.00;59042.03;10386710;28;20025;-76
2023/03/30 13:49:50;;;;;;;2.20;1.30;;;;;;;0.00;100.00;59042.03;10389345;28;20481;-76
2023/03/30 13:54:51;;;;;;;3.28;1.70;;;;;;;0.00;100.00;59042.03;10388017;28;20512;-76
2023/03/30 14:00:00;;;;;;;9.98;1.80;;;;;;;0.00;100.00;59042.03;10387780;28;20059;-76
2023/03/30 14:05:13;;;;;;;3.42;1.52;;;;;;;0.00;100.00;59042.03;10388710;28;20049;-75
2023/03/30 14:10:18;;;;;;;3.80;1.30;;;;;;;0.00;100.00;59042.03;10386934;28;20143;-76
2023/03/30 14:15:18;;;;;;;5.32;1.98;;;;;;;0.00;100.00;59042.03;10388442;28;20392;-76
2023/03/30 14:20:39;;;;;;;6.73;1.40;;;;;;;0.00;100.00;59042.03;10388374;28;20034;-76
2023/03/30 14:25:40;;;;;;;2.70;1.40;;;;;;;0.00;100.00;59042.03;10383749;28;20034;-76
2023/03/30 14:30:58;;;;;;;6.13;1.77;;;;;;;0.00;100.00;59042.03;10347237;28;20484;-76
2023/03/30 14:35:59;;;;;;;5.05;1.55;;;;;;;0.00;100.00;59042.03;10388269;28;20021;-77
2023/03/30 14:41:00;;;;;;;6.15;2.58;;;;;;;0.00;100.00;59042.03;10388444;28;20504;-76
2023/03/30 14:46:06;;;;;;;8.80;2.10;;;;;;;0.00;100.00;59042.03;10386516;28;20041;-76
2023/03/30 14:51:22;;;;;;;5.10;1.55;;;;;;;0.00;100.00;59042.03;10386879;28;20064;-76
2023/03/30 14:56:23;;;;;;;9.75;1.70;;;;;;;0.00;100.00;59042.03;10386765;28;20025;-77
2023/03/30 15:01:29;;;;;;;3.33;1.65;;;;;;;0.00;100.00;59042.03;10386862;28;20029;-77
2023/03/30 15:06:31;;;;;;;1.92;1.13;;;;;;;0.00;100.00;59042.03;10386786;28;20059;-77
2023/03/30 15:11:33;;;;;;;4.47;1.88;;;;;;;0.00;100.00;59042.03;10386608;28;20385;-76
2023/03/30 15:16:35;;;;;;;2.42;1.10;;;;;;;0.00;100.00;59042.03;10374484;28;20125;-76
2023/03/30 15:21:36;;;;;;;5.13;1.83;;;;;;;0.00;100.00;59042.03;10381484;28;20080;-75
2023/03/30 15:26:47;;;;;;;5.57;1.33;;;;;;;0.00;100.00;59042.03;10362646;28;20033;-75
2023/03/30 15:32:26;;;;;;;4.53;1.48;;;;;;;0.00;100.00;59042.03;10383972;28;20426;-76
2023/03/30 15:37:27;;;;;;;2.17;1.33;;;;;;;0.00;100.00;59042.03;10344314;28;20030;-76
2023/03/30 15:42:29;;;;;;;5.43;2.28;;;;;;;0.00;100.00;59042.03;10382131;28;20455;-75
2023/03/30 15:47:30;;;;;;;2.50;1.52;;;;;;;0.00;100.00;59042.03;10383881;28;20087;-75
2023/03/30 15:52:36;;;;;;;3.13;1.60;;;;;;;0.00;100.00;59042.03;10371614;28;20472;-74
2023/03/30 15:57:42;;;;;;;5.72;1.70;;;;;;;0.00;100.00;59042.03;10374510;28;20033;-78
2023/03/30 16:02:49;;;;;;;6.25;1.52;;;;;;;0.00;100.00;59042.03;10354173;28;20617;-76
2023/03/30 16:07:49;;;;;;;4.13;2.03;;;;;;;0.00;100.00;59042.03;10358875;28;20503;-76
2023/03/30 16:12:52;;;;;;;2.80;1.65;;;;;;;0.00;100.00;59042.03;10361453;28;20515;-79
2023/03/30 16:17:53;;;;;;;5.10;2.85;;;;;;;0.00;100.00;59042.03;10357497;28;20108;-78
2023/03/30 16:22:54;;;;;;;7.72;2.85;;;;;;;0.00;100.00;59042.03;10358925;28;20032;-78
2023/03/30 16:27:54;;;;;;;3.78;1.58;;;;;;;0.00;100.00;59042.03;10353943;28;20395;-78
2023/03/30 16:32:57;;;;;;;4.70;2.42;;;;;;;0.00;100.00;59042.03;10382040;28;20095;-78
2023/03/30 16:37:58;;;;;;;10.80;2.72;;;;;;;0.00;100.00;59042.03;10360344;28;20041;-79
2023/03/30 16:42:59;;;;;;;12.32;3.78;;;;;;;0.00;100.00;59042.03;10358419;28;20543;-75
2023/03/30 16:48:00;;;;;;;9.18;3.40;;;;;;;0.00;100.00;59042.03;10359646;28;20421;-76
2023/03/30 16:53:00;;;;;;;11.45;4.13;;;;;;;0.00;100.00;59042.03;10366207;28;22158;-76
2023/03/30 16:58:01;;;;;;;14.20;3.55;;;;;;;0.00;100.00;59042.03;10351680;28;20025;-76
2023/03/30 17:03:04;;;;;;;8.35;3.40;;;;;;;0.00;100.00;59042.03;10350817;28;20077;-77
2023/03/30 17:08:12;;;;;;;8.40;4.28;;;;;;;0.00;100.00;59042.03;10370972;28;20534;-76
2023/03/30 17:13:12;;;;;;;;;;;;;;;0.00;100.00;59042.03;10350033;28;20040;-75
2023/03/30 17:18:24;;;;;;;10.83;5.13;;;;;;;0.00;100.00;59042.03;10358283;28;19913;-77
2023/03/30 17:23:27;;;;;;;11.38;3.47;;;;;;;0.00;100.00;59042.03;10360397;28;20029;-76
2023/03/30 17:28:30;;;;;;;9.30;4.20;;;;;;;0.00;100.00;59042.03;10358698;28;20030;-75
2023/03/30 17:33:33;;;;;;;12.75;4.97;;;;;;;0.00;100.00;59042.03;10365945;28;20044;-74
2023/03/30 17:38:33;;;;;;;20.13;5.45;;;;;;;0.00;100.00;59042.03;10361946;28;20030;-77
2023/03/30 17:43:34;;;;;;;13.45;5.00;;;;;;;0.00;100.00;59042.03;10355968;28;20542;-77
2023/03/30 17:48:34;;;;;;;14.48;5.47;;;;;;;0.00;100.00;59042.03;10352680;28;20164;-75
2023/03/30 17:53:35;;;;;;;12.23;3.57;;;;;;;0.00;100.00;59042.03;10354243;28;20042;-76
2023/03/30 17:58:36;;;;;;;11.85;4.88;;;;;;;0.00;100.00;59042.03;10346500;28;20359;-76
2023/03/30 18:03:39;;;;;;;11.80;5.28;;;;;;;0.00;100.00;59042.03;10355328;28;20095;-75
2023/03/30 18:08:41;;;;;;;18.85;4.50;;;;;;;0.00;100.00;59042.03;10362451;28;20615;-74
2023/03/30 18:13:42;;;;;;;21.23;5.38;;;;;;;0.00;100.00;59042.03;10361955;28;20526;-78
2023/03/30 18:18:42;;;;;;;20.83;6.18;;;;;;;0.00;100.00;59042.03;10363995;28;20106;-74
2023/03/30 18:23:43;;;;;;;12.93;6.72;;;;;;;0.00;100.00;59042.03;10365926;28;20026;-75
2023/03/30 18:28:45;;;;;;;10.80;4.83;;;;;;;0.00;100.00;59042.03;10374704;28;20749;-77
2023/03/30 18:33:45;;;;;;;16.08;5.45;;;;;;;0.00;100.00;59042.03;10368979;28;20296;-74
2023/03/30 18:38:46;;;;;;;17.50;5.20;;;;;;;0.00;100.00;59042.03;10384171;28;20025;-76
2023/03/30 18:43:46;;;;;;;10.53;4.03;;;;;;;0.00;100.00;59042.03;10365474;28;20272;-76
2023/03/30 18:48:47;;;;;;;8.52;4.97;;;;;;;0.00;100.00;59042.03;10367436;28;20300;-78
2023/03/30 18:53:47;;;;;;;14.07;6.00;;;;;;;0.00;100.00;59042.03;10371791;28;20041;-76
2023/03/30 18:58:48;;;;;;;7.20;3.80;;;;;;;0.00;100.00;59042.03;10371267;28;20033;-77
2023/03/30 19:03:48;;;;;;;8.55;2.80;;;;;;;0.00;100.00;59042.03;10372830;28;20720;-76
2023/03/30 19:08:49;;;;;;;14.52;6.43;;;;;;;0.00;100.00;59042.03;10375615;28;20033;-77
2023/03/30 19:13:50;;;;;;;5.60;2.45;;;;;;;0.00;100.00;59042.03;10378267;28;20033;-76
2023/03/30 19:18:52;;;;;;;4.10;2.10;;;;;;;0.00;100.00;59042.03;10378313;28;20048;-75
2023/03/30 19:23:55;;;;;;;3.10;1.60;;;;;;;0.00;100.00;59042.03;10376389;28;20026;-76
2023/03/30 19:28:55;;;;;;;9.10;2.33;;;;;;;0.00;100.00;59042.03;10378129;28;20040;-76
2023/03/30 19:33:56;;;;;;;4.43;2.45;;;;;;;0.00;100.00;59042.03;10379226;28;20040;-76
2023/03/30 19:38:57;;;;;;;4.80;2.20;;;;;;;0.00;100.00;59042.03;10378988;28;20485;-78
2023/03/30 19:43:57;;;;;;;12.07;3.22;;;;;;;0.00;100.00;59042.03;10380741;28;20076;-78
2023/03/30 19:48:58;;;;;;;7.17;2.50;;;;;;;0.00;100.00;59042.03;10378720;28;20057;-77
2023/03/30 19:53:58;;;;;;;8.50;2.80;;;;;;;0.00;100.00;59042.03;10383719;28;20291;-79
2023/03/30 19:59:01;;;;;;;5.40;2.38;;;;;;;0.00;100.00;59042.03;10369727;28;20037;-77
2023/03/30 20:04:01;;;;;;;6.68;2.58;;;;;;;0.00;100.00;59042.03;10383204;28;20040;-79
2023/03/30 20:09:03;;;;;;;6.90;2.75;;;;;;;0.00;100.00;59042.03;10371951;28;20036;-78
2023/03/30 20:14:03;;;;;;;9.93;3.35;;;;;;;0.00;100.00;59042.03;10373416;28;20160;-78
2023/03/30 20:19:05;;;;;;;14.60;3.20;;;;;;;0.00;100.00;59042.03;10375291;28;20029;-77
2023/03/30 20:24:06;;;;;;;9.50;5.32;;;;;;;0.00;100.00;59042.03;10378436;28;20017;-76
2023/03/30 20:29:07;;;;;;;18.85;8.60;;;;;;;0.00;100.00;59042.03;10378738;28;20420;-77
2023/03/30 20:34:09;;;;;;;25.10;10.73;;;;;;;0.00;100.00;59042.03;10367515;28;20119;-78
2023/03/30 20:39:12;;;;;;;29.75;9.93;;;;;;;0.00;100.00;59042.03;10364469;28;20088;-79
2023/03/30 20:44:17;;;;;;;21.02;10.75;;;;;;;0.00;100.00;59042.03;10370839;28;20117;-79
2023/03/30 20:49:18;;;;;;;23.27;10.15;;;;;;;0.00;100.00;59042.03;10381661;28;20133;-81
2023/03/30 20:54:18;;;;;;;26.33;8.98;;;;;;;0.00;100.00;59042.03;10383151;28;20165;-78
2023/03/30 20:59:20;;;;;;;20.55;8.55;;;;;;;0.00;100.00;59042.03;10367314;28;20029;-79
2023/03/30 21:04:20;;;;;;;24.88;8.25;;;;;;;0.00;100.00;59042.03;10377378;28;20083;-80
2023/03/30 21:09:21;;;;;;;22.42;7.25;;;;;;;0.00;100.00;59042.03;10375138;28;20029;-79
2023/03/30 21:14:22;;;;;;;16.80;7.57;;;;;;;0.00;100.00;59042.03;10372850;28;20449;-79
2023/03/30 21:19:23;;;;;;;18.85;8.15;;;;;;;0.00;100.00;59042.03;10375311;28;20037;-79
2023/03/30 21:24:23;;;;;;;16.17;8.10;;;;;;;0.00;100.00;59042.03;10377590;28;20033;-79
2023/03/30 21:29:24;;;;;;;17.35;8.13;;;;;;;0.00;100.00;59042.03;10383730;28;20029;-78
2023/03/30 21:34:24;;;;;;;16.52;8.10;;;;;;;0.00;100.00;59042.03;10380476;28;20029;-77
2023/03/30 21:39:25;;;;;;;26.42;8.15;;;;;;;0.00;100.00;59042.03;10375541;28;20032;-78
2023/03/30 21:44:26;;;;;;;12.07;6.38;;;;;;;0.00;100.00;59042.03;10378797;28;20079;-79
2023/03/30 21:49:26;;;;;;;11.85;5.80;;;;;;;0.00;100.00;59042.03;10383846;28;20045;-79
2023/03/30 21:54:27;;;;;;;12.20;6.03;;;;;;;0.00;100.00;59042.03;10377616;28;20385;-78
2023/03/30 21:59:27;;;;;;;13.15;4.72;;;;;;;0.00;100.00;59042.03;10385004;28;20029;-78
2023/03/30 22:04:28;;;;;;;12.88;5.05;;;;;;;0.00;100.00;59042.03;10379370;28;20106;-79
2023/03/30 22:09:28;;;;;;;11.93;5.55;;;;;;;0.00;100.00;59042.03;10390580;28;20029;-79
2023/03/30 22:14:29;;;;;;;11.27;5.00;;;;;;;0.00;100.00;59042.03;10386525;28;20105;-77
2023/03/30 22:19:30;;;;;;;12.48;4.55;;;;;;;0.00;100.00;59042.03;10384939;28;20098;-77
2023/03/30 22:24:31;;;;;;;15.75;5.53;;;;;;;0.00;100.00;59042.03;10384398;28;20542;-77
2023/03/30 22:29:32;;;;;;;16.35;6.03;;;;;;;0.00;100.00;59042.03;10388141;28;20092;-76
2023/03/30 22:34:32;;;;;;;16.77;5.72;;;;;;;0.00;100.00;59042.03;10398069;28;20128;-76
2023/03/30 22:39:33;;;;;;;18.77;7.00;;;;;;;0.00;100.00;59042.03;10390235;28;20037;-76
2023/03/30 22:44:33;;;;;;;14.07;6.87;;;;;;;0.00;100.00;59042.03;10385265;28;20033;-77
2023/03/30 22:49:34;;;;;;;17.98;7.05;;;;;;;0.00;100.00;59042.03;10384291;28;20790;-77
2023/03/30 22:54:35;;;;;;;16.42;6.25;;;;;;;0.00;100.00;59042.03;10385240;28;20374;-76
2023/03/30 22:59:35;;;;;;;13.18;6.53;;;;;;;0.00;100.00;59042.03;10385041;28;20033;-77
2023/03/30 23:04:38;;;;;;;14.13;7.38;;;;;;;0.00;100.00;59042.03;10383888;28;20021;-76
2023/03/30 23:09:39;;;;;;;12.32;6.82;;;;;;;0.00;100.00;59042.03;10396005;28;20033;-78
2023/03/30 23:14:41;;;;;;;23.67;7.70;;;;;;;0.00;100.00;59042.03;10377673;28;20523;-77
2023/03/30 23:19:45;;;;;;;13.45;6.45;;;;;;;0.00;100.00;59042.03;10383751;28;20037;-77
2023/03/30 23:24:45;;;;;;;21.67;7.15;;;;;;;0.00;100.00;59042.03;10382448;28;20021;-77
2023/03/30 23:29:46;;;;;;;20.05;5.90;;;;;;;0.00;100.00;59042.03;10383434;28;20760;-77
2023/03/30 23:34:46;;;;;;;15.85;5.97;;;;;;;0.00;100.00;59042.03;10343852;28;20038;-77